createdAt,value
2023-07-02T00:00:33.224Z,7.47
2023-07-02T00:03:02.737Z,5.65
2023-07-02T00:05:31.870Z,5.68
2023-07-02T00:08:00.315Z,6.35
2023-07-02T00:10:28.797Z,4.45
2023-07-02T00:12:56.819Z,6.40
2023-07-02T00:15:24.988Z,5.28
2023-07-02T00:17:53.903Z,6.32
2023-07-02T00:20:22.038Z,5.15
2023-07-02T00:22:50.601Z,5.82
2023-07-02T00:25:19.012Z,5.75
2023-07-02T00:27:47.076Z,7.32
2023-07-02T00:30:15.523Z,6.47
2023-07-02T00:32:43.993Z,5.57
2023-07-02T00:35:13.306Z,4.78
2023-07-02T00:37:41.316Z,5.30
2023-07-02T00:40:10.110Z,4.93
2023-07-02T00:42:38.366Z,4.07
2023-07-02T00:45:07.730Z,5.28
2023-07-02T00:47:37.060Z,5.55
2023-07-02T00:50:06.394Z,6.20
2023-07-02T00:52:34.431Z,4.65
2023-07-02T00:55:03.822Z,4.53
2023-07-02T00:57:32.053Z,5.78
2023-07-02T01:00:04.190Z,5.18
2023-07-02T01:02:32.938Z,4.07
2023-07-02T01:05:02.507Z,4.18
2023-07-02T01:07:31.001Z,3.58
2023-07-02T01:09:59.540Z,5.75
2023-07-02T01:12:29.319Z,4.72
2023-07-02T01:15:01.862Z,4.03
2023-07-02T01:17:43.262Z,3.95
2023-07-02T01:20:13.141Z,3.92
2023-07-02T01:22:41.961Z,3.85
2023-07-02T01:25:10.683Z,4.40
2023-07-02T01:27:38.901Z,5.28
2023-07-02T01:30:09.921Z,3.28
2023-07-02T01:32:39.070Z,3.72
2023-07-02T01:35:08.778Z,2.83
2023-07-02T01:37:38.678Z,3.45
2023-07-02T01:40:09.573Z,4.07
2023-07-02T01:42:38.790Z,3.25
2023-07-02T01:45:07.496Z,3.10
2023-07-02T01:47:35.644Z,3.42
2023-07-02T01:50:06.216Z,3.60
2023-07-02T01:52:34.876Z,4.78
2023-07-02T01:55:04.079Z,3.30
2023-07-02T01:57:32.964Z,3.83
2023-07-02T02:00:01.038Z,4.37
2023-07-02T02:02:29.872Z,4.53
2023-07-02T02:04:58.558Z,2.90
2023-07-02T02:07:27.203Z,4.45
2023-07-02T02:09:55.379Z,7.07
2023-07-02T02:12:23.758Z,3.33
2023-07-02T02:14:52.058Z,3.67
2023-07-02T02:17:20.868Z,4.07
2023-07-02T02:19:48.993Z,4.45
2023-07-02T02:22:17.503Z,4.18
2023-07-02T02:24:45.898Z,3.47
2023-07-02T02:27:14.082Z,3.58
2023-07-02T02:29:42.152Z,4.85
2023-07-02T02:32:11.082Z,5.10
2023-07-02T02:34:40.206Z,2.75
2023-07-02T02:37:09.085Z,5.50
2023-07-02T02:39:38.440Z,2.85
2023-07-02T02:42:06.674Z,3.08
2023-07-02T02:44:35.619Z,3.75
2023-07-02T02:47:05.984Z,3.50
2023-07-02T02:49:34.345Z,2.55
2023-07-02T02:52:02.520Z,2.37
2023-07-02T02:54:30.879Z,2.22
2023-07-02T02:56:58.960Z,2.33
2023-07-02T02:59:27.223Z,2.17
2023-07-02T03:01:55.776Z,5.62
2023-07-02T03:04:26.879Z,2.35
2023-07-02T03:06:55.045Z,3.35
2023-07-02T03:09:23.687Z,2.22
2023-07-02T03:11:51.798Z,3.58
2023-07-02T03:14:19.930Z,2.92
2023-07-02T03:16:48.478Z,3.83
2023-07-02T03:19:17.237Z,3.15
2023-07-02T03:21:45.922Z,1.65
2023-07-02T03:24:14.560Z,3.17
2023-07-02T03:26:44.166Z,5.45
2023-07-02T03:29:12.532Z,2.22
2023-07-02T03:31:41.015Z,2.50
2023-07-02T03:34:10.645Z,2.42
2023-07-02T03:36:39.102Z,2.58
2023-07-02T03:39:10.407Z,7.20
2023-07-02T03:41:39.069Z,1.90
2023-07-02T03:44:07.688Z,2.28
2023-07-02T03:46:36.237Z,2.40
2023-07-02T03:49:04.781Z,3.30
2023-07-02T03:51:33.204Z,1.75
2023-07-02T03:54:01.274Z,2.00
2023-07-02T03:56:29.337Z,2.62
2023-07-02T03:58:57.691Z,1.58
2023-07-02T04:01:25.837Z,1.83
2023-07-02T04:03:55.885Z,2.78
2023-07-02T04:06:24.243Z,3.47
2023-07-02T04:08:52.290Z,1.87
2023-07-02T04:11:20.820Z,3.08
2023-07-02T04:13:49.036Z,1.70
2023-07-02T04:16:17.217Z,2.97
2023-07-02T04:18:45.665Z,2.10
2023-07-02T04:21:13.787Z,3.37
2023-07-02T04:23:41.827Z,2.85
2023-07-02T04:26:18.872Z,2.03
2023-07-02T04:29:00.145Z,3.72
2023-07-02T04:31:28.783Z,2.55
2023-07-02T04:33:58.139Z,3.58
2023-07-02T04:36:26.243Z,3.67
2023-07-02T04:38:54.744Z,2.75
2023-07-02T04:41:22.768Z,3.10
2023-07-02T04:43:51.072Z,3.97
2023-07-02T04:46:19.611Z,3.45
2023-07-02T04:48:47.888Z,3.53
2023-07-02T04:51:16.454Z,3.15
2023-07-02T04:53:44.956Z,5.78
2023-07-02T04:56:13.183Z,2.12
2023-07-02T04:58:41.235Z,3.10
2023-07-02T05:01:09.903Z,3.03
2023-07-02T05:03:39.176Z,2.95
2023-07-02T05:06:07.236Z,4.07
2023-07-02T05:08:37.501Z,2.92
2023-07-02T05:11:05.744Z,3.25
2023-07-02T05:13:33.882Z,2.85
2023-07-02T05:16:02.321Z,2.72
2023-07-02T05:18:30.380Z,6.03
2023-07-02T05:20:58.384Z,2.97
2023-07-02T05:23:26.855Z,2.45
2023-07-02T05:25:54.924Z,2.37
2023-07-02T05:28:23.079Z,1.20
2023-07-02T05:30:51.715Z,8.50
2023-07-02T05:33:21.247Z,2.80
2023-07-02T05:35:49.619Z,1.60
2023-07-02T05:38:19.994Z,2.90
2023-07-02T05:40:48.208Z,2.10
2023-07-02T05:43:16.605Z,1.92
2023-07-02T05:45:44.932Z,2.22
2023-07-02T05:48:13.121Z,2.75
2023-07-02T05:50:41.266Z,4.00
2023-07-02T05:53:10.925Z,2.05
2023-07-02T05:55:40.324Z,3.75
2023-07-02T05:58:08.655Z,2.05
2023-07-02T06:00:37.245Z,2.87
2023-07-02T06:03:05.629Z,3.40
2023-07-02T06:05:34.778Z,1.90
2023-07-02T06:08:03.037Z,3.60
2023-07-02T06:10:31.512Z,2.65
2023-07-02T06:12:59.585Z,2.50
2023-07-02T06:15:27.917Z,2.25
2023-07-02T06:17:56.499Z,3.28
2023-07-02T06:20:24.632Z,3.08
2023-07-02T06:22:52.837Z,8.48
2023-07-02T06:25:21.218Z,2.67
2023-07-02T06:27:49.380Z,2.65
2023-07-02T06:30:17.538Z,4.87
2023-07-02T06:32:46.050Z,1.65
2023-07-02T06:35:14.173Z,2.95
2023-07-02T06:37:42.980Z,3.17
2023-07-02T06:40:11.813Z,5.07
2023-07-02T06:42:41.328Z,2.72
2023-07-02T06:45:09.857Z,2.50
2023-07-02T06:47:38.677Z,1.95
2023-07-02T06:50:07.067Z,2.08
2023-07-02T06:52:35.308Z,2.20
2023-07-02T06:55:05.543Z,4.32
2023-07-02T06:57:33.604Z,2.80
2023-07-02T07:00:02.047Z,2.25
2023-07-02T07:02:30.461Z,2.15
2023-07-02T07:04:58.747Z,2.25
2023-07-02T07:07:27.150Z,2.35
2023-07-02T07:09:55.535Z,2.42
2023-07-02T07:12:23.578Z,2.00
2023-07-02T07:14:51.893Z,1.45
2023-07-02T07:17:20.705Z,2.55
2023-07-02T07:19:48.815Z,1.87
2023-07-02T07:22:17.401Z,2.12
2023-07-02T07:24:45.708Z,1.65
2023-07-02T07:27:13.799Z,2.03
2023-07-02T07:29:42.004Z,5.45
2023-07-02T07:32:10.335Z,1.62
2023-07-02T07:34:38.392Z,2.28
2023-07-02T07:37:06.688Z,1.15
2023-07-02T07:39:35.066Z,2.85
2023-07-02T07:42:03.251Z,2.37
2023-07-02T07:44:32.162Z,2.08
2023-07-02T07:47:00.649Z,2.75
2023-07-02T07:49:28.639Z,2.20
2023-07-02T07:51:56.785Z,2.87
2023-07-02T07:54:25.943Z,2.00
2023-07-02T07:56:53.978Z,1.95
2023-07-02T07:59:22.884Z,2.35
2023-07-02T08:01:51.424Z,2.58
2023-07-02T08:04:19.773Z,1.50
2023-07-02T08:06:47.857Z,2.10
2023-07-02T08:09:15.969Z,2.30
2023-07-02T08:11:44.303Z,3.85
2023-07-02T08:14:13.590Z,2.05
2023-07-02T08:16:41.974Z,1.60
2023-07-02T08:19:10.447Z,1.55
2023-07-02T08:21:38.611Z,2.30
2023-07-02T08:24:07.466Z,1.70
2023-07-02T08:26:35.833Z,1.98
2023-07-02T08:29:04.277Z,2.35
2023-07-02T08:31:32.436Z,1.58
2023-07-02T08:34:00.751Z,1.75
2023-07-02T08:36:28.838Z,3.53
2023-07-02T08:38:56.923Z,2.00
2023-07-02T08:41:25.374Z,2.17
2023-07-02T08:43:56.972Z,3.35
2023-07-02T08:46:25.606Z,2.00
2023-07-02T08:48:53.917Z,1.70
2023-07-02T08:51:22.130Z,1.45
2023-07-02T08:53:50.653Z,1.77
2023-07-02T08:56:18.765Z,1.45
2023-07-02T08:58:46.963Z,1.77
2023-07-02T09:01:15.918Z,1.45
2023-07-02T09:03:44.179Z,2.37
2023-07-02T09:06:14.001Z,2.28
2023-07-02T09:08:42.830Z,1.95
2023-07-02T09:11:19.978Z,2.10
2023-07-02T09:13:53.508Z,2.25
2023-07-02T09:16:33.965Z,2.87
2023-07-02T09:19:03.561Z,2.00
2023-07-02T09:21:46.275Z,4.00
2023-07-02T09:24:22.666Z,3.12
2023-07-02T09:26:52.694Z,2.05
2023-07-02T09:29:42.310Z,3.78
2023-07-02T09:32:11.250Z,3.20
2023-07-02T09:34:43.686Z,2.65
2023-07-02T09:37:11.862Z,1.75
2023-07-02T09:39:40.699Z,2.92
2023-07-02T09:42:10.727Z,2.50
2023-07-02T09:44:39.456Z,2.05
2023-07-02T09:47:09.574Z,2.08
2023-07-02T09:49:44.808Z,1.87
2023-07-02T09:52:14.753Z,2.20
2023-07-02T09:54:46.270Z,2.40
2023-07-02T09:57:14.770Z,3.70
2023-07-02T09:59:43.381Z,2.55
2023-07-02T10:02:13.354Z,1.90
2023-07-02T10:04:46.988Z,2.35
2023-07-02T10:07:30.749Z,1.73
2023-07-02T10:09:59.486Z,2.25
2023-07-02T10:12:29.672Z,2.25
2023-07-02T10:14:59.427Z,2.30
2023-07-02T10:17:32.411Z,1.95
2023-07-02T10:20:06.946Z,1.80
2023-07-02T10:25:12.876Z,1.80
2023-07-02T10:27:43.692Z,1.85
2023-07-02T10:30:12.004Z,3.00
2023-07-02T10:32:41.141Z,2.10
2023-07-02T10:35:19.253Z,2.60
2023-07-02T10:37:48.003Z,2.75
2023-07-02T10:40:16.282Z,2.25
2023-07-02T10:42:48.104Z,2.33
2023-07-02T10:45:17.595Z,3.53
2023-07-02T10:47:46.652Z,5.87
2023-07-02T10:50:21.606Z,1.65
2023-07-02T10:52:51.844Z,2.67
2023-07-02T10:55:21.431Z,1.83
2023-07-02T10:57:52.595Z,2.30
2023-07-02T11:00:21.075Z,2.47
2023-07-02T11:02:49.966Z,2.37
2023-07-02T11:05:18.658Z,3.37
2023-07-02T11:07:46.748Z,2.22
2023-07-02T11:10:21.315Z,2.28
2023-07-02T11:12:49.516Z,5.05
2023-07-02T11:15:21.340Z,1.55
2023-07-02T11:17:49.644Z,1.30
2023-07-02T11:20:18.277Z,2.42
2023-07-02T11:22:47.595Z,1.67
2023-07-02T11:25:17.903Z,2.35
2023-07-02T11:27:46.227Z,2.33
2023-07-02T11:30:15.055Z,1.95
2023-07-02T11:32:50.920Z,2.10
2023-07-02T11:35:20.249Z,1.62
2023-07-02T11:37:50.317Z,1.83
2023-07-02T11:40:18.971Z,1.45
2023-07-02T11:42:47.328Z,1.62
2023-07-02T11:45:15.473Z,1.92
2023-07-02T11:47:43.692Z,2.20
2023-07-02T11:50:25.569Z,1.80
2023-07-02T11:52:54.820Z,2.15
2023-07-02T11:55:23.680Z,1.23
2023-07-02T11:57:51.813Z,1.35
2023-07-02T12:00:20.125Z,1.40
2023-07-02T12:02:49.518Z,1.67
2023-07-02T12:05:17.660Z,1.65
2023-07-02T12:07:45.960Z,1.45
2023-07-02T12:10:15.631Z,1.35
2023-07-02T12:12:43.744Z,1.85
2023-07-02T12:15:12.023Z,1.40
2023-07-02T12:17:40.433Z,1.45
2023-07-02T12:20:09.002Z,1.55
2023-07-02T12:22:37.162Z,2.20
2023-07-02T12:25:06.577Z,1.60
2023-07-02T12:27:34.625Z,1.50
2023-07-02T12:30:03.838Z,1.23
2023-07-02T12:32:32.533Z,1.12
2023-07-02T12:35:00.654Z,1.40
2023-07-02T12:37:28.765Z,1.27
2023-07-02T12:39:57.266Z,1.50
2023-07-02T12:42:25.437Z,1.15
2023-07-02T12:44:53.736Z,1.25
2023-07-02T12:47:22.201Z,1.20
2023-07-02T12:49:50.314Z,1.37
2023-07-02T12:52:18.522Z,1.37
2023-07-02T12:54:47.131Z,0.80
2023-07-02T12:57:15.260Z,0.85
2023-07-02T12:59:44.140Z,0.75
2023-07-02T13:02:12.691Z,1.45
2023-07-02T13:04:41.096Z,0.40
2023-07-02T13:07:12.075Z,0.60
2023-07-02T13:09:40.787Z,1.02
2023-07-02T13:12:09.427Z,0.88
2023-07-02T13:14:37.811Z,1.10
2023-07-02T13:17:06.672Z,0.70
2023-07-02T13:19:35.192Z,0.75
2023-07-02T13:22:04.027Z,0.95
2023-07-02T13:24:38.886Z,0.57
2023-07-02T13:27:13.857Z,8.90
2023-07-02T13:29:42.290Z,0.50
2023-07-02T13:32:10.746Z,0.77
2023-07-02T13:34:39.151Z,1.02
2023-07-02T13:37:08.425Z,3.00
2023-07-02T13:39:36.696Z,0.60
2023-07-02T13:42:05.123Z,0.57
2023-07-02T13:44:33.635Z,0.80
2023-07-02T13:47:01.732Z,0.73
2023-07-02T13:49:29.798Z,0.70
2023-07-02T13:51:58.373Z,0.52
2023-07-02T13:54:26.690Z,0.50
2023-07-02T13:56:54.767Z,0.93
2023-07-02T13:59:23.818Z,0.70
2023-07-02T14:01:52.210Z,0.77
2023-07-02T14:04:20.652Z,1.00
2023-07-02T14:06:48.988Z,1.50
2023-07-02T14:09:17.101Z,0.55
2023-07-02T14:11:45.493Z,1.83
2023-07-02T14:14:13.587Z,0.70
2023-07-02T14:16:42.146Z,0.82
2023-07-02T14:19:10.738Z,0.88
2023-07-02T14:21:39.009Z,0.70
2023-07-02T14:24:07.190Z,3.33
2023-07-02T14:26:35.552Z,1.48
2023-07-02T14:29:03.900Z,1.60
2023-07-02T14:31:31.997Z,1.12
2023-07-02T14:34:00.527Z,0.77
2023-07-02T14:36:28.649Z,0.70
2023-07-02T14:38:56.755Z,1.40
2023-07-02T14:41:25.138Z,0.93
2023-07-02T14:43:53.156Z,0.93
2023-07-02T14:46:23.579Z,0.93
2023-07-02T14:48:52.058Z,0.50
2023-07-02T14:51:20.205Z,0.65
2023-07-02T14:53:48.252Z,3.10
2023-07-02T14:56:16.855Z,0.98
2023-07-02T14:58:44.990Z,1.40
2023-07-02T15:01:13.064Z,0.77
2023-07-02T15:03:41.811Z,3.70
2023-07-02T15:06:15.170Z,0.77
2023-07-02T15:08:43.658Z,0.90
2023-07-02T15:11:13.387Z,1.20
2023-07-02T15:13:45.028Z,0.62
2023-07-02T15:16:14.105Z,0.80
2023-07-02T15:18:42.306Z,0.60
2023-07-02T15:21:10.606Z,2.47
2023-07-02T15:23:39.024Z,0.70
2023-07-02T15:26:07.721Z,0.60
2023-07-02T15:28:37.342Z,0.80
2023-07-02T15:31:09.577Z,1.30
2023-07-02T15:33:38.199Z,0.60
2023-07-02T15:36:10.247Z,0.70
2023-07-02T15:38:38.466Z,0.62
2023-07-02T15:41:16.390Z,0.50
2023-07-02T15:43:45.484Z,0.57
2023-07-02T15:46:16.773Z,0.50
2023-07-02T15:48:45.691Z,0.93
2023-07-02T15:51:14.064Z,1.25
2023-07-02T15:53:43.538Z,0.65
2023-07-02T15:56:12.190Z,0.60
2023-07-02T15:58:40.596Z,1.00
2023-07-02T16:01:15.227Z,0.73
2023-07-02T16:03:44.367Z,1.00
2023-07-02T16:06:14.498Z,1.15
2023-07-02T16:08:44.170Z,0.93
2023-07-02T16:11:14.265Z,0.60
2023-07-02T16:13:43.802Z,1.23
2023-07-02T16:16:12.386Z,1.00
2023-07-02T16:18:40.785Z,1.40
2023-07-02T16:21:08.946Z,1.08
2023-07-02T16:23:37.306Z,0.80
2023-07-02T16:26:07.028Z,1.62
2023-07-02T16:28:37.226Z,0.60
2023-07-02T16:31:09.146Z,1.40
2023-07-02T16:33:38.494Z,1.20
2023-07-02T16:36:09.939Z,0.70
2023-07-02T16:38:38.394Z,1.10
2023-07-02T16:41:09.452Z,0.90
2023-07-02T16:43:37.497Z,0.80
2023-07-02T16:46:05.608Z,0.75
2023-07-02T16:48:34.005Z,4.70
2023-07-02T16:51:07.292Z,1.00
2023-07-02T16:53:35.760Z,0.83
2023-07-02T16:56:05.888Z,1.58
2023-07-02T16:58:34.580Z,0.85
2023-07-02T17:01:09.118Z,1.87
2023-07-02T17:03:37.424Z,1.27
2023-07-02T17:06:07.852Z,1.70
2023-07-02T17:08:39.042Z,0.98
2023-07-02T17:11:09.735Z,0.77
2023-07-02T17:13:38.176Z,1.17
2023-07-02T17:16:07.147Z,1.10
2023-07-02T17:18:35.808Z,0.70
2023-07-02T17:21:04.011Z,1.02
2023-07-02T17:23:32.035Z,0.77
2023-07-02T17:26:05.206Z,2.50
2023-07-02T17:28:33.675Z,1.05
2023-07-02T17:31:03.099Z,1.10
2023-07-02T17:33:31.334Z,1.00
2023-07-02T17:35:59.438Z,1.55
2023-07-02T17:38:27.773Z,1.23
2023-07-02T17:40:55.799Z,1.20
2023-07-02T17:43:23.809Z,1.02
2023-07-02T17:45:56.572Z,0.73
2023-07-02T17:48:27.051Z,1.02
2023-07-02T17:51:00.387Z,0.93
2023-07-02T17:53:32.388Z,1.37
2023-07-02T17:56:01.056Z,2.95
2023-07-02T17:58:29.410Z,1.52
2023-07-02T18:00:57.662Z,2.37
2023-07-02T18:03:26.402Z,2.53
2023-07-02T18:05:55.040Z,1.12
2023-07-02T18:08:23.474Z,0.60
2023-07-02T18:10:52.042Z,0.70
2023-07-02T18:13:22.462Z,0.90
2023-07-02T18:15:52.386Z,0.73
2023-07-02T18:18:21.908Z,0.80
2023-07-02T18:20:50.640Z,1.62
2023-07-02T18:23:19.773Z,1.05
2023-07-02T18:25:53.534Z,0.98
2023-07-02T18:28:24.804Z,0.75
2023-07-02T18:30:54.017Z,2.20
2023-07-02T18:33:22.126Z,0.75
2023-07-02T18:35:51.076Z,2.15
2023-07-02T18:38:19.915Z,0.70
2023-07-02T18:40:48.063Z,1.10
2023-07-02T18:43:16.174Z,0.90
2023-07-02T18:45:52.312Z,1.00
2023-07-02T18:48:21.546Z,0.80
2023-07-02T18:50:50.159Z,0.80
2023-07-02T18:53:19.838Z,0.62
2023-07-02T18:55:58.812Z,0.70
2023-07-02T18:58:28.417Z,0.88
2023-07-02T19:00:56.953Z,0.60
2023-07-02T19:03:25.033Z,1.30
2023-07-02T19:05:53.578Z,0.75
2023-07-02T19:08:22.507Z,0.75
2023-07-02T19:11:01.102Z,1.65
2023-07-02T19:13:29.658Z,0.85
2023-07-02T19:15:57.774Z,0.50
2023-07-02T19:18:26.936Z,1.48
2023-07-02T19:20:59.096Z,0.62
2023-07-02T19:23:32.269Z,0.50
2023-07-02T19:26:00.755Z,0.67
2023-07-02T19:28:29.150Z,0.77
2023-07-02T19:31:02.178Z,0.55
2023-07-02T19:33:31.090Z,0.50
2023-07-02T19:35:59.216Z,0.88
2023-07-02T19:38:30.592Z,1.77
2023-07-02T19:40:59.496Z,0.80
2023-07-02T19:43:28.228Z,0.55
2023-07-02T19:45:58.886Z,0.80
2023-07-02T19:48:28.030Z,0.80
2023-07-02T19:51:05.130Z,1.70
2023-07-02T19:53:35.383Z,1.20
2023-07-02T19:56:07.772Z,1.48
2023-07-02T19:58:36.660Z,0.60
2023-07-02T20:01:11.271Z,0.70
2023-07-02T20:03:41.762Z,1.02
2023-07-02T20:06:10.926Z,0.60
2023-07-02T20:08:39.540Z,1.15
2023-07-02T20:11:07.856Z,1.17
2023-07-02T20:13:36.780Z,1.62
2023-07-02T20:16:05.780Z,0.85
2023-07-02T20:18:33.799Z,2.05
2023-07-02T20:21:04.040Z,1.27
2023-07-02T20:23:33.504Z,1.45
2023-07-02T20:26:01.736Z,0.60
2023-07-02T20:28:29.968Z,1.67
2023-07-02T20:31:03.202Z,1.30
2023-07-02T20:33:31.408Z,1.25
2023-07-02T20:36:02.455Z,0.93
2023-07-02T20:38:31.618Z,1.20
2023-07-02T20:41:03.508Z,1.02
2023-07-02T20:43:34.718Z,1.10
2023-07-02T20:46:05.706Z,1.42
2023-07-02T20:48:34.837Z,1.42
2023-07-02T20:51:04.506Z,1.73
2023-07-02T20:53:32.656Z,1.35
2023-07-02T20:56:00.852Z,1.90
2023-07-02T20:58:29.440Z,1.50
2023-07-02T21:01:02.827Z,1.27
2023-07-02T21:03:31.641Z,1.10
2023-07-02T21:06:04.224Z,0.88
2023-07-02T21:08:32.913Z,1.90
2023-07-02T21:11:04.922Z,1.25
2023-07-02T21:13:35.905Z,0.85
2023-07-02T21:16:07.242Z,1.48
2023-07-02T21:18:35.682Z,1.50
2023-07-02T21:21:03.830Z,3.47
2023-07-02T21:23:32.775Z,1.25
2023-07-02T21:26:03.942Z,1.10
2023-07-02T21:28:32.554Z,1.17
2023-07-02T21:31:01.206Z,1.58
2023-07-02T21:33:32.209Z,1.65
2023-07-02T21:36:09.070Z,1.75
2023-07-02T21:38:39.010Z,2.37
2023-07-02T21:41:09.383Z,2.08
2023-07-02T21:43:37.720Z,1.90
2023-07-02T21:46:08.670Z,1.17
2023-07-02T21:48:40.222Z,1.45
2023-07-02T21:51:08.306Z,1.62
2023-07-02T21:53:37.507Z,1.35
2023-07-02T21:56:06.019Z,0.55
2023-07-02T21:58:34.191Z,1.25
2023-07-02T22:01:02.770Z,2.83
2023-07-02T22:03:31.380Z,3.50
2023-07-02T22:05:59.972Z,1.48
2023-07-02T22:08:28.113Z,1.73
2023-07-02T22:11:05.833Z,1.30
2023-07-02T22:13:37.486Z,1.62
2023-07-02T22:16:05.971Z,1.75
2023-07-02T22:18:38.065Z,1.65
2023-07-02T22:21:07.273Z,1.50
2023-07-02T22:23:35.773Z,1.50
2023-07-02T22:26:04.378Z,1.60
2023-07-02T22:28:33.052Z,1.85
2023-07-02T22:31:03.398Z,0.98
2023-07-02T22:33:33.750Z,1.80
2023-07-02T22:36:02.316Z,1.35
2023-07-02T22:38:30.453Z,1.75
2023-07-02T22:40:58.535Z,2.42
2023-07-02T22:43:26.946Z,1.85
2023-07-02T22:45:55.378Z,2.37
2023-07-02T22:48:23.670Z,1.33
2023-07-02T22:50:52.025Z,3.92
2023-07-02T22:53:20.050Z,1.10
2023-07-02T22:55:48.211Z,2.17
2023-07-02T22:58:16.713Z,1.60
2023-07-02T23:00:44.859Z,1.50
2023-07-02T23:03:14.288Z,2.22
2023-07-02T23:05:42.991Z,2.95
2023-07-02T23:08:13.153Z,2.95
2023-07-02T23:10:41.282Z,4.18
2023-07-02T23:13:09.808Z,2.72
2023-07-02T23:15:37.863Z,2.10
2023-07-02T23:18:05.915Z,1.75
2023-07-02T23:20:37.870Z,1.40
2023-07-02T23:23:07.107Z,2.58
2023-07-02T23:25:35.775Z,2.30
2023-07-02T23:28:04.356Z,1.65
2023-07-02T23:30:35.055Z,1.62
2023-07-02T23:33:11.039Z,1.37
2023-07-02T23:35:39.608Z,2.33
2023-07-02T23:38:08.446Z,4.37
2023-07-02T23:40:37.051Z,1.85
2023-07-02T23:43:05.777Z,2.58
2023-07-02T23:45:34.363Z,2.60
2023-07-02T23:48:02.472Z,2.35
2023-07-02T23:50:30.639Z,1.85
2023-07-02T23:52:59.068Z,3.53
2023-07-02T23:55:27.196Z,2.80
2023-07-02T23:57:55.436Z,1.45
